createdAt,value
2023-04-02T00:01:38.282Z,0.50
2023-04-02T00:04:06.569Z,0.60
2023-04-02T00:06:34.214Z,0.60
2023-04-02T00:09:20.273Z,0.60
2023-04-02T00:11:48.243Z,0.32
2023-04-02T00:14:25.342Z,0.70
2023-04-02T00:16:53.120Z,0.68
2023-04-02T00:19:32.192Z,0.68
2023-04-02T00:21:58.671Z,0.45
2023-04-02T00:24:25.062Z,0.90
2023-04-02T00:26:52.352Z,0.43
2023-04-02T00:29:18.999Z,0.52
2023-04-02T00:31:47.708Z,0.60
2023-04-02T00:34:20.864Z,0.75
2023-04-02T00:36:47.646Z,0.60
2023-04-02T00:39:25.784Z,0.60
2023-04-02T00:41:53.311Z,0.40
2023-04-02T00:44:19.722Z,0.40
2023-04-02T00:46:46.138Z,0.52
2023-04-02T00:49:22.821Z,0.38
2023-04-02T00:52:00.527Z,0.43
2023-04-02T00:54:29.075Z,0.68
2023-04-02T00:56:55.805Z,0.32
2023-04-02T00:59:32.226Z,0.32
2023-04-02T01:02:13.933Z,0.70
2023-04-02T01:07:09.446Z,0.38
2023-04-02T01:10:00.227Z,0.43
2023-04-02T01:12:48.531Z,0.30
2023-04-02T01:15:14.916Z,0.30
2023-04-02T01:17:48.324Z,0.40
2023-04-02T01:20:43.554Z,0.68
2023-04-02T01:23:34.778Z,0.35
2023-04-02T01:26:12.008Z,0.43
2023-04-02T01:28:47.489Z,0.70
2023-04-02T01:31:13.923Z,0.32
2023-04-02T01:33:40.316Z,0.70
2023-04-02T01:36:10.156Z,0.50
2023-04-02T01:39:09.767Z,0.57
2023-04-02T01:44:17.261Z,0.50
2023-04-02T01:46:43.793Z,0.30
2023-04-02T01:49:19.608Z,0.47
2023-04-02T01:51:47.031Z,0.47
2023-04-02T01:54:13.982Z,0.80
2023-04-02T01:56:40.431Z,0.75
2023-04-02T01:59:06.858Z,0.50
2023-04-02T02:01:46.081Z,0.88
2023-04-02T02:04:12.617Z,0.65
2023-04-02T02:06:39.129Z,0.40
2023-04-02T02:09:06.272Z,0.30
2023-04-02T02:11:33.128Z,0.40
2023-04-02T02:14:01.099Z,0.52
2023-04-02T02:16:28.789Z,0.50
2023-04-02T02:18:57.800Z,0.60
2023-04-02T02:21:39.273Z,0.65
2023-04-02T02:24:07.689Z,0.28
2023-04-02T02:26:34.076Z,0.80
2023-04-02T02:29:00.587Z,0.70
2023-04-02T02:31:30.957Z,0.30
2023-04-02T02:34:02.896Z,0.38
2023-04-02T02:36:47.652Z,0.65
2023-04-02T02:39:17.812Z,0.50
2023-04-02T02:41:50.637Z,0.40
2023-04-02T02:44:31.500Z,0.40
2023-04-02T02:47:04.748Z,0.30
2023-04-02T02:49:33.025Z,0.40
2023-04-02T02:52:20.436Z,0.70
2023-04-02T02:54:49.297Z,0.52
2023-04-02T02:57:22.036Z,0.60
2023-04-02T02:59:48.614Z,0.30
2023-04-02T03:02:15.222Z,0.50
2023-04-02T03:04:41.683Z,0.28
2023-04-02T03:07:08.229Z,0.45
2023-04-02T03:09:44.361Z,0.40
2023-04-02T03:12:29.471Z,0.35
2023-04-02T03:15:02.486Z,0.10
2023-04-02T03:17:39.344Z,0.57
2023-04-02T03:20:41.187Z,0.55
2023-04-02T03:23:22.378Z,0.50
2023-04-02T03:25:57.715Z,0.50
2023-04-02T03:28:27.489Z,0.35
2023-04-02T03:31:00.047Z,0.30
2023-04-02T03:33:56.777Z,0.95
2023-04-02T03:36:31.339Z,0.57
2023-04-02T03:39:12.158Z,0.60
2023-04-02T03:41:41.674Z,0.60
2023-04-02T03:44:17.270Z,0.43
2023-04-02T03:46:53.522Z,0.50
2023-04-02T03:49:43.929Z,0.30
2023-04-02T03:52:22.972Z,0.52
2023-04-02T03:54:53.340Z,0.55
2023-04-02T03:57:32.029Z,0.45
2023-04-02T04:00:21.070Z,0.35
2023-04-02T04:03:11.840Z,0.45
2023-04-02T04:05:43.891Z,0.22
2023-04-02T04:08:16.208Z,0.30
2023-04-02T04:10:42.839Z,0.47
2023-04-02T04:13:15.199Z,0.40
2023-04-02T04:16:04.638Z,0.40
2023-04-02T04:18:47.103Z,0.43
2023-04-02T04:21:27.473Z,0.45
2023-04-02T04:23:53.922Z,0.68
2023-04-02T04:26:23.874Z,0.57
2023-04-02T04:31:36.413Z,0.20
2023-04-02T04:34:11.914Z,0.40
2023-04-02T04:36:47.465Z,0.40
2023-04-02T04:39:17.479Z,0.65
2023-04-02T04:44:41.996Z,0.28
2023-04-02T04:47:12.012Z,0.43
2023-04-02T04:52:29.452Z,0.10
2023-04-02T04:54:55.896Z,0.30
2023-04-02T04:57:36.136Z,0.50
2023-04-02T05:00:30.666Z,0.30
2023-04-02T05:03:28.616Z,0.20
2023-04-02T05:05:58.246Z,0.30
2023-04-02T05:08:26.692Z,0.20
2023-04-02T05:10:56.248Z,0.20
2023-04-02T05:13:53.381Z,0.45
2023-04-02T05:16:31.470Z,0.35
2023-04-02T05:18:57.798Z,0.40
2023-04-02T05:21:37.321Z,0.35
2023-04-02T05:24:58.088Z,0.40
2023-04-02T05:27:29.360Z,0.60
2023-04-02T05:30:00.699Z,0.55
2023-04-02T05:32:30.445Z,0.30
2023-04-02T05:34:56.927Z,0.80
2023-04-02T05:37:24.606Z,0.50
2023-04-02T05:39:54.455Z,0.47
2023-04-02T05:42:25.780Z,0.20
2023-04-02T05:45:01.331Z,0.40
2023-04-02T05:47:29.510Z,0.20
2023-04-02T05:50:04.928Z,0.50
2023-04-02T05:52:34.066Z,0.80
2023-04-02T05:55:12.350Z,0.30
2023-04-02T05:58:04.282Z,0.40
2023-04-02T06:00:39.798Z,0.30
2023-04-02T06:03:25.936Z,0.22
2023-04-02T06:05:52.647Z,0.20
2023-04-02T06:08:30.303Z,0.57
2023-04-02T06:11:40.200Z,0.28
2023-04-02T06:14:06.648Z,0.40
2023-04-02T06:16:33.115Z,0.20
2023-04-02T06:18:59.582Z,0.40
2023-04-02T06:21:26.021Z,0.22
2023-04-02T06:23:56.904Z,0.20
2023-04-02T06:26:38.046Z,0.25
2023-04-02T06:29:23.270Z,0.22
2023-04-02T06:32:08.652Z,0.20
2023-04-02T06:34:36.579Z,0.45
2023-04-02T06:37:23.854Z,0.25
2023-04-02T06:39:50.275Z,0.20
2023-04-02T06:42:22.216Z,0.20
2023-04-02T06:44:48.850Z,0.30
2023-04-02T06:47:27.002Z,0.35
2023-04-02T06:50:12.604Z,0.30
2023-04-02T06:52:48.597Z,0.45
2023-04-02T06:55:24.675Z,0.28
2023-04-02T06:57:51.085Z,0.28
2023-04-02T07:00:34.127Z,0.30
2023-04-02T07:03:00.805Z,0.43
2023-04-02T07:05:27.221Z,0.20
2023-04-02T07:07:53.613Z,0.30
2023-04-02T07:10:20.149Z,0.63
2023-04-02T07:12:46.831Z,0.32
2023-04-02T07:15:16.811Z,0.45
2023-04-02T07:17:43.688Z,0.30
2023-04-02T07:20:40.854Z,0.40
2023-04-02T07:23:07.271Z,0.22
2023-04-02T07:25:33.961Z,0.20
2023-04-02T07:28:00.548Z,0.20
2023-04-02T07:30:26.989Z,0.10
2023-04-02T07:32:53.551Z,0.28
2023-04-02T07:35:19.990Z,0.20
2023-04-02T07:37:46.455Z,0.15
2023-04-02T07:40:17.406Z,0.30
2023-04-02T07:42:44.352Z,0.10
2023-04-02T07:45:11.040Z,0.20
2023-04-02T07:47:37.499Z,0.20
2023-04-02T07:50:04.154Z,0.10
2023-04-02T07:52:30.590Z,0.30
2023-04-02T07:54:57.012Z,0.30
2023-04-02T07:57:23.470Z,0.47
2023-04-02T07:59:49.898Z,0.28
2023-04-02T08:02:19.894Z,0.30
2023-04-02T08:04:46.344Z,0.63
2023-04-02T08:07:12.766Z,0.10
2023-04-02T08:09:39.167Z,0.50
2023-04-02T08:12:05.790Z,0.40
2023-04-02T08:14:32.216Z,0.20
2023-04-02T08:16:58.911Z,0.28
2023-04-02T08:19:25.424Z,0.28
2023-04-02T08:21:51.829Z,0.40
2023-04-02T08:24:18.641Z,0.30
2023-04-02T08:26:45.895Z,0.20
2023-04-02T08:29:12.396Z,0.40
2023-04-02T08:31:38.803Z,0.20
2023-04-02T08:34:05.219Z,0.40
2023-04-02T08:36:35.752Z,0.40
2023-04-02T08:39:02.570Z,0.10
2023-04-02T08:41:29.047Z,0.30
2023-04-02T08:44:08.013Z,0.95
2023-04-02T08:46:48.193Z,0.60
2023-04-02T08:49:16.627Z,0.30
2023-04-02T08:51:43.110Z,0.20
2023-04-02T08:54:21.731Z,0.20
2023-04-02T08:57:13.923Z,0.32
2023-04-02T08:59:41.145Z,0.20
2023-04-02T09:02:26.107Z,0.13
2023-04-02T09:04:52.795Z,0.20
2023-04-02T09:07:19.318Z,1.10
2023-04-02T09:09:48.835Z,0.20
2023-04-02T09:12:33.482Z,0.30
2023-04-02T09:15:05.785Z,0.20
2023-04-02T09:17:42.657Z,0.13
2023-04-02T09:20:29.271Z,0.10
2023-04-02T09:22:57.025Z,0.35
2023-04-02T09:25:25.640Z,0.40
2023-04-02T09:27:53.183Z,0.32
2023-04-02T09:30:25.155Z,0.40
2023-04-02T09:32:53.885Z,0.30
2023-04-02T09:35:26.844Z,0.40
2023-04-02T09:38:22.922Z,0.10
2023-04-02T09:40:58.411Z,0.60
2023-04-02T09:43:26.297Z,0.40
2023-04-02T09:46:16.298Z,0.10
2023-04-02T09:48:53.423Z,0.40
2023-04-02T09:51:21.806Z,0.30
2023-04-02T09:53:49.656Z,0.20
2023-04-02T09:56:20.590Z,0.30
2023-04-02T09:59:04.902Z,0.20
2023-04-02T10:01:39.245Z,0.20
2023-04-02T10:04:16.877Z,0.30
2023-04-02T10:06:49.214Z,0.30
2023-04-02T10:09:21.274Z,0.22
2023-04-02T10:11:47.676Z,0.30
2023-04-02T10:14:18.271Z,0.28
2023-04-02T10:16:53.611Z,0.20
2023-04-02T10:19:37.695Z,0.20
2023-04-02T10:22:06.612Z,0.68
2023-04-02T10:24:33.061Z,0.13
2023-04-02T10:27:19.627Z,0.32
2023-04-02T10:30:09.104Z,0.45
2023-04-02T10:32:48.719Z,0.30
2023-04-02T10:35:18.150Z,0.30
2023-04-02T10:37:51.629Z,0.20
2023-04-02T10:40:34.985Z,0.40
2023-04-02T10:43:01.292Z,0.20
2023-04-02T10:45:33.961Z,0.28
2023-04-02T10:48:32.844Z,0.60
2023-04-02T10:51:29.418Z,0.15
2023-04-02T10:54:24.573Z,0.10
2023-04-02T10:56:51.516Z,0.45
2023-04-02T10:59:29.523Z,0.10
2023-04-02T11:01:56.770Z,0.35
2023-04-02T11:04:35.861Z,0.10
2023-04-02T11:07:14.607Z,0.03
2023-04-02T11:09:42.634Z,0.30
2023-04-02T11:12:15.750Z,0.20
2023-04-02T11:14:42.185Z,0.17
2023-04-02T11:17:19.008Z,0.45
2023-04-02T11:19:45.515Z,0.45
2023-04-02T11:22:20.719Z,0.30
2023-04-02T11:24:53.656Z,0.68
2023-04-02T11:27:30.179Z,0.10
2023-04-02T11:30:24.052Z,0.30
2023-04-02T11:32:50.617Z,0.28
2023-04-02T11:35:24.284Z,0.32
2023-04-02T11:37:50.827Z,0.35
2023-04-02T11:40:17.103Z,0.20
2023-04-02T11:42:47.683Z,0.30
2023-04-02T11:45:20.930Z,0.30
2023-04-02T11:47:59.651Z,0.20
2023-04-02T11:50:35.977Z,0.17
2023-04-02T11:53:02.999Z,0.20
2023-04-02T11:55:31.764Z,0.38
2023-04-02T11:58:10.239Z,0.38
2023-04-02T12:00:54.196Z,0.17
2023-04-02T12:03:42.543Z,0.35
2023-04-02T12:06:18.192Z,0.30
2023-04-02T12:11:33.668Z,0.22
2023-04-02T12:14:00.331Z,0.10
2023-04-02T12:16:26.749Z,0.20
2023-04-02T12:18:53.296Z,0.30
2023-04-02T12:21:21.764Z,0.20
2023-04-02T12:23:48.325Z,0.20
2023-04-02T12:26:28.140Z,0.25
2023-04-02T12:28:54.689Z,0.15
2023-04-02T12:31:21.672Z,0.25
2023-04-02T12:33:51.545Z,0.20
2023-04-02T12:36:22.572Z,0.10
2023-04-02T12:38:53.491Z,0.20
2023-04-02T12:41:27.672Z,0.20
2023-04-02T12:44:01.601Z,0.30
2023-04-02T12:46:29.071Z,0.20
2023-04-02T12:49:07.373Z,0.13
2023-04-02T12:51:35.429Z,0.30
2023-04-02T12:54:01.966Z,0.40
2023-04-02T12:56:28.515Z,0.47
2023-04-02T12:59:01.186Z,0.13
2023-04-02T13:01:28.902Z,0.20
2023-04-02T13:04:11.754Z,0.20
2023-04-02T13:06:39.394Z,0.28
2023-04-02T13:09:07.247Z,0.10
2023-04-02T13:11:35.449Z,0.20
2023-04-02T13:14:02.741Z,0.30
2023-04-02T13:16:34.800Z,0.20
2023-04-02T13:19:25.884Z,0.20
2023-04-02T13:21:52.800Z,0.10
2023-04-02T13:24:21.339Z,0.20
2023-04-02T13:26:48.290Z,0.22
2023-04-02T13:29:17.507Z,0.30
2023-04-02T13:31:44.100Z,0.40
2023-04-02T13:34:10.775Z,0.30
2023-04-02T13:36:37.316Z,0.30
2023-04-02T13:39:03.979Z,0.30
2023-04-02T13:41:32.170Z,0.28
2023-04-02T13:44:00.762Z,0.30
2023-04-02T13:46:29.299Z,0.10
2023-04-02T13:48:56.010Z,0.22
2023-04-02T13:51:36.388Z,0.40
2023-04-02T13:54:02.935Z,0.30
2023-04-02T13:56:29.422Z,0.38
2023-04-02T13:58:55.938Z,0.20
2023-04-02T14:01:22.570Z,0.30
2023-04-02T14:03:49.117Z,0.20
2023-04-02T14:06:43.776Z,0.38
2023-04-02T14:09:19.337Z,0.28
2023-04-02T14:14:23.964Z,0.30
2023-04-02T14:17:03.564Z,0.30
2023-04-02T14:20:07.042Z,0.57
2023-04-02T14:22:40.447Z,0.85
2023-04-02T14:25:25.368Z,0.30
2023-04-02T14:28:39.927Z,0.38
2023-04-02T14:31:27.516Z,0.30
2023-04-02T14:34:12.753Z,0.28
2023-04-02T14:37:00.364Z,0.20
2023-04-02T14:39:34.928Z,0.35
2023-04-02T14:42:21.397Z,0.20
2023-04-02T14:45:02.254Z,0.45
2023-04-02T14:47:39.730Z,0.40
2023-04-02T14:50:15.538Z,0.40
2023-04-02T14:52:42.707Z,0.38
2023-04-02T14:55:34.436Z,0.43
2023-04-02T14:58:02.538Z,0.60
2023-04-02T15:00:35.162Z,0.50
2023-04-02T15:03:23.915Z,0.63
2023-04-02T15:05:57.443Z,0.20
2023-04-02T15:08:27.783Z,0.30
2023-04-02T15:10:56.190Z,0.32
2023-04-02T15:13:30.637Z,0.35
2023-04-02T15:16:00.655Z,0.40
2023-04-02T15:18:27.208Z,0.40
2023-04-02T15:21:14.357Z,0.40
2023-04-02T15:23:59.948Z,0.50
2023-04-02T15:26:45.393Z,0.40
2023-04-02T15:29:52.426Z,0.32
2023-04-02T15:32:34.048Z,0.50
2023-04-02T15:35:20.301Z,0.50
2023-04-02T15:38:12.073Z,0.63
2023-04-02T15:40:55.366Z,0.60
2023-04-02T15:43:43.536Z,1.23
2023-04-02T15:46:23.078Z,0.63
2023-04-02T15:49:14.536Z,1.10
2023-04-02T15:52:01.795Z,0.90
2023-04-02T15:54:37.432Z,0.40
2023-04-02T15:57:25.599Z,0.88
2023-04-02T16:00:12.201Z,0.40
2023-04-02T16:02:50.931Z,0.90
2023-04-02T16:05:58.672Z,0.65
2023-04-02T16:09:03.411Z,0.52
2023-04-02T16:11:30.078Z,0.52
2023-04-02T16:14:10.418Z,0.30
2023-04-02T16:19:35.096Z,0.40
2023-04-02T16:22:23.451Z,0.25
2023-04-02T16:24:53.714Z,0.55
2023-04-02T16:27:35.788Z,0.77
2023-04-02T16:30:29.736Z,0.45
2023-04-02T16:33:14.752Z,0.50
2023-04-02T16:36:04.504Z,0.43
2023-04-02T16:39:08.608Z,0.77
2023-04-02T16:42:04.432Z,0.40
2023-04-02T16:45:06.471Z,0.60
2023-04-02T16:47:54.106Z,0.30
2023-04-02T16:50:54.123Z,0.60
2023-04-02T16:54:01.433Z,0.38
2023-04-02T16:56:31.429Z,0.30
2023-04-02T16:59:03.841Z,0.45
2023-04-02T17:01:41.622Z,0.35
2023-04-02T17:04:35.302Z,0.30
2023-04-02T17:07:14.899Z,0.60
2023-04-02T17:09:51.026Z,0.45
2023-04-02T17:12:31.057Z,0.20
2023-04-02T17:15:27.789Z,0.25
2023-04-02T17:17:57.660Z,0.35
2023-04-02T17:20:24.440Z,0.80
2023-04-02T17:22:51.043Z,0.30
2023-04-02T17:25:39.496Z,0.40
2023-04-02T17:28:06.004Z,0.28
2023-04-02T17:30:39.028Z,0.30
2023-04-02T17:33:12.869Z,0.22
2023-04-02T17:36:10.540Z,0.47
2023-04-02T17:38:45.492Z,0.40
2023-04-02T17:41:34.498Z,0.50
2023-04-02T17:44:08.087Z,0.40
2023-04-02T17:46:39.212Z,0.50
2023-04-02T17:49:22.210Z,0.22
2023-04-02T17:51:55.291Z,0.40
2023-04-02T17:54:29.489Z,0.43
2023-04-02T17:57:27.015Z,0.40
2023-04-02T18:00:10.319Z,0.45
2023-04-02T18:03:10.251Z,0.75
2023-04-02T18:05:48.000Z,0.40
2023-04-02T18:08:20.380Z,0.60
2023-04-02T18:10:52.999Z,0.50
2023-04-02T18:13:33.319Z,0.45
2023-04-02T18:15:59.733Z,0.63
2023-04-02T18:18:38.959Z,0.40
2023-04-02T18:21:23.671Z,0.47
2023-04-02T18:24:11.922Z,0.60
2023-04-02T18:26:50.563Z,0.57
2023-04-02T18:29:34.828Z,0.65
2023-04-02T18:32:31.749Z,0.55
2023-04-02T18:35:20.163Z,0.60
2023-04-02T18:38:06.302Z,0.90
2023-04-02T18:41:00.594Z,0.38
2023-04-02T18:43:42.122Z,0.30
2023-04-02T18:46:17.800Z,0.63
2023-04-02T18:49:02.783Z,0.80
2023-04-02T18:51:32.233Z,0.73
2023-04-02T18:54:17.608Z,0.63
2023-04-02T18:56:44.455Z,0.68
2023-04-02T18:59:32.282Z,0.70
2023-04-02T19:01:58.842Z,0.30
2023-04-02T19:04:32.251Z,0.32
2023-04-02T19:07:06.018Z,0.70
2023-04-02T19:09:36.440Z,0.80
2023-04-02T19:12:15.929Z,0.73
2023-04-02T19:14:42.539Z,0.80
2023-04-02T19:17:22.283Z,0.52
2023-04-02T19:20:01.003Z,1.00
2023-04-02T19:22:33.404Z,0.60
2023-04-02T19:24:59.818Z,0.75
2023-04-02T19:27:48.772Z,0.50
2023-04-02T19:30:37.117Z,0.98
2023-04-02T19:33:09.391Z,0.73
2023-04-02T19:35:38.819Z,0.85
2023-04-02T19:38:39.211Z,0.57
2023-04-02T19:41:26.726Z,0.73
2023-04-02T19:43:53.624Z,0.50
2023-04-02T19:46:20.153Z,0.70
2023-04-02T19:49:11.236Z,0.90
2023-04-02T19:51:37.776Z,0.93
2023-04-02T19:54:04.496Z,0.85
2023-04-02T19:56:31.091Z,0.80
2023-04-02T19:58:58.306Z,0.70
2023-04-02T20:01:26.730Z,0.85
2023-04-02T20:03:53.272Z,0.50
2023-04-02T20:06:19.838Z,0.57
2023-04-02T20:08:46.344Z,0.65
2023-04-02T20:11:12.863Z,0.82
2023-04-02T20:13:39.438Z,0.70
2023-04-02T20:16:06.089Z,0.60
2023-04-02T20:18:32.600Z,0.60
2023-04-02T20:20:59.389Z,1.48
2023-04-02T20:23:25.989Z,0.63
2023-04-02T20:25:54.905Z,1.10
2023-04-02T20:28:22.087Z,0.80
2023-04-02T20:30:48.632Z,0.60
2023-04-02T20:33:16.606Z,0.70
2023-04-02T20:35:43.226Z,0.77
2023-04-02T20:38:09.959Z,0.77
2023-04-02T20:40:36.699Z,0.63
2023-04-02T20:43:03.429Z,0.75
2023-04-02T20:45:29.939Z,0.75
2023-04-02T20:47:56.480Z,0.60
2023-04-02T20:50:23.291Z,0.90
2023-04-02T20:52:49.874Z,0.90
2023-04-02T20:55:16.454Z,1.08
2023-04-02T20:57:42.996Z,0.80
2023-04-02T21:00:10.218Z,0.80
2023-04-02T21:02:36.851Z,0.90
2023-04-02T21:05:03.614Z,0.75
2023-04-02T21:07:30.254Z,0.80
2023-04-02T21:09:56.812Z,1.17
2023-04-02T21:12:23.321Z,0.60
2023-04-02T21:14:49.867Z,1.15
2023-04-02T21:17:16.393Z,0.90
2023-04-02T21:19:42.911Z,0.90
2023-04-02T21:22:09.405Z,0.95
2023-04-02T21:24:35.940Z,1.08
2023-04-02T21:27:02.483Z,0.55
2023-04-02T21:29:29.015Z,0.70
2023-04-02T21:31:55.687Z,1.10
2023-04-02T21:34:22.233Z,0.95
2023-04-02T21:36:48.885Z,0.95
2023-04-02T21:39:20.886Z,1.00
2023-04-02T21:41:48.363Z,0.82
2023-04-02T21:44:15.187Z,0.80
2023-04-02T21:46:41.862Z,1.10
2023-04-02T21:49:08.664Z,0.63
2023-04-02T21:51:36.185Z,1.00
2023-04-02T21:54:02.707Z,1.17
2023-04-02T21:56:30.830Z,1.05
2023-04-02T21:58:57.611Z,0.93
2023-04-02T22:01:27.569Z,0.88
2023-04-02T22:03:55.312Z,1.40
2023-04-02T22:06:22.258Z,1.15
2023-04-02T22:08:55.866Z,1.10
2023-04-02T22:11:24.432Z,1.10
2023-04-02T22:13:51.067Z,1.33
2023-04-02T22:16:21.906Z,2.05
2023-04-02T22:18:48.841Z,1.27
2023-04-02T22:21:15.520Z,1.00
2023-04-02T22:23:42.206Z,1.23
2023-04-02T22:26:13.873Z,1.23
2023-04-02T22:28:40.483Z,1.58
2023-04-02T22:31:14.995Z,1.40
2023-04-02T22:33:41.838Z,0.95
2023-04-02T22:36:08.439Z,1.02
2023-04-02T22:38:35.148Z,1.00
2023-04-02T22:41:18.736Z,0.95
2023-04-02T22:43:45.467Z,1.05
2023-04-02T22:46:13.342Z,1.63
2023-04-02T22:48:39.958Z,1.15
2023-04-02T22:51:10.138Z,0.70
2023-04-02T22:53:36.744Z,0.75
2023-04-02T22:56:06.206Z,1.77
2023-04-02T22:58:33.024Z,1.05
2023-04-02T23:01:04.742Z,0.80
2023-04-02T23:03:31.290Z,1.05
2023-04-02T23:06:01.830Z,0.82
2023-04-02T23:08:28.373Z,0.90
2023-04-02T23:11:05.939Z,0.75
2023-04-02T23:13:32.708Z,1.23
2023-04-02T23:16:02.398Z,1.10
2023-04-02T23:18:31.305Z,1.40
2023-04-02T23:20:57.850Z,1.10
2023-04-02T23:23:24.370Z,0.88
2023-04-02T23:25:50.892Z,1.00
2023-04-02T23:28:17.557Z,0.80
2023-04-02T23:30:44.142Z,0.70
2023-04-02T23:33:10.655Z,1.40
2023-04-02T23:35:37.194Z,1.02
2023-04-02T23:38:03.739Z,0.80
2023-04-02T23:40:30.265Z,1.00
2023-04-02T23:42:56.767Z,1.08
2023-04-02T23:45:23.297Z,0.70
2023-04-02T23:47:49.834Z,1.08
2023-04-02T23:50:16.469Z,0.90
2023-04-02T23:52:42.957Z,1.00
2023-04-02T23:55:09.723Z,1.23
2023-04-02T23:57:36.507Z,0.85
